LFQQ/LIL METAR and TAF weather

Enter ICAO airport designator
Station Type Date Time Source
LFQQ METAR 2018/08/14 10:00 UTC NOAA

LFQQ 141000Z AUTO 27007KT 230V310 9999 BKN022 BKN100 BKN220 22/15 Q1016 NOSIG


Station Type Date Time Source
LFQQ Decoded METAR 2018/08/14 10:00 UTC NOAA

Lille, France (LFQQ) 50-34N 003-06E 52M
Aug 14, 2018 - 06:00 AM EDT / 2018.08.14 1000 UTC
Wind: from the W (270 degrees) at 8 MPH (7 KT) (direction variable):0
Visibility: greater than 7 mile(s):0
Sky conditions: mostly cloudy
Temperature: 71 F (22 C)
Dew Point: 59 F (15 C)
Relative Humidity: 64%
Pressure (altimeter): 30.00 in. Hg (1016 hPa)
ob: LFQQ 141000Z AUTO 27007KT 230V310 9999 BKN022 BKN100 BKN220 22/15 Q1016 NOSIG
cycle: 10

Station Type Date Time Source
LFQQ TAF 2018/08/14 06:22 UTC NOAA

TAF LFQQ 140500Z 1406/1512 26010KT 9999 BKN013
BECMG 1406/1409 SCT030
BECMG 1421/1424 20005KT
BECMG 1500/1503 OVC005
BECMG 1507/1509 BKN020


Example: see airport list